首页
METAR-TAF:

METAR-TAF

机场 :

Dalhart Municipal Airport

Dalhart, 得克萨斯州, 美国

纬度: 36-01-24N, 经度: 102-32-50W, 海拔: 1216米

当前天气观测

该预报发布于49分钟前的20:53 UTC
风速13节,风向西转西南,有时为22节阵风
温度 28°C
湿度 12%
气压 1011 hPa
能見度: 16.1公里
天空无云

METAR: KDHT 172053Z AUTO 24013G22KT 10SM CLR 28/M04 A2984 RMK AO2 PK WND 23026/2036 SLP057 T02831044 56026

时间: 16:42 (21:42 UTC)

预报

该预报发布于3小时和12分钟前的18:30 UTC
预报有效从17日的 19点(UTC)到 18日的 18点(UTC)
风速12节,风向西转西南,有时为20节阵风
能見度: 10公里
天空无云
从 18日的 0500点(UTC)
风速11节,风向西
能見度: 10公里
天空无云
从 18日的 0900点(UTC)
风速15节,风向北转西北
能見度: 10公里
天空无云
从 18日的 1100点(UTC)
风速20节,风向,有时为30节阵风
能見度: 10公里
少量云层高于2000英尺
散云层高于25000英尺
从 18日的 1400点(UTC)
风速25节,风向,有时为35节阵风
能見度: 10公里
多云层高于2000英尺
从 18日的 1700点(UTC)
风速25节,风向,有时为35节阵风
能見度: 10公里
少量云层高于2000英尺
多云层高于5000英尺

TAF: KDHT 171830Z 1719/1818 24012G20KT P6SM SKC FM180500 26011KT P6SM SKC FM180900 33015KT P6SM SKC FM181100 36020G30KT P6SM FEW020 SCT250 FM181400 36025G35KT P6SM BKN020 FM181700 36025G35KT P6SM FEW020 BKN050

超过4000个机场的气象观测和天气预报(METAR&TAF报告)。

可查询的气象台以黄色和红色小点在地图上表示。

将鼠标移到小点上方,可查看气象台名称。

然后点击查看天气观测和预报。

如需切换地图:点击带黑十字的绿色按钮放大地图;点击带横线的绿色按钮缩小地图;或者点击绿色箭头查看邻近地区的地图。


METAR-TAF: